KDYR  Dyersburg Regional Airport

Add Bookmark

Dyersburg, Tennessee, United States

Status Useage
Operational Public
Latitude Longitude
35° 59' 52" N 89° 24' 23" W
35.997972 -89.406583
Local (DST -5) UTC (GMT -6)
Oct 1, 2014 07:13 Oct 1, 2014 12:13
Sunrise-Sunset Local UTC
Begin Civil Twilight 06:26 11:26
Sunrise 06:52 11:52
Sunset 06:41 23:41
End Civil Twilight 07:07 00:07

Current Weather

METAR Observed VFR
KDYR 011155Z 00000KT 8SM CLR 16/09 A2993 Wed, Oct 1, 2014 @ 11:55 UTC
(18 Minutes ago)
Visual Flight Rules
Wind Visibility Clouds Conditions
Calm 8 statute miles
  • Clear skies
  • No significant weather
Temperatures Readings Precipitation
Current Temp 16°C (61°F)
Low Temp 16°C (61°F)
High Temp 18°C (64°F)
Dewpoint 9°C (48°F)
Humidity 63%
Altimeter 29.93"Hg
Sea Level Pressure 1014mb
Field Elevation 337'
None Recorded

Additional weather within a 50nm radius of KDYR

Map ICAO Location
KHKA 20.9nm W (261°)
KBYH 26.2nm W (266°)
KUCY 30.7nm N (042°)
KMKL 33.8nm S (135°)
KNQA 44.6nm S (211°)

24 Hour Weather History

Loading
-

24 Hour Weather Graphs

Loading
-

CheckWX.com is intended as a tool to help pilots better visualize weather data. It is not intended as a substitute for an official weather briefing obtained from a Flight Service Station. CheckWX.com does not meet the FAA requirements for an official pre-flight weather briefing. Therefore, it's important that pilots still call and obtain an official FSS pre-flight weather briefing.